createdAt,value
2022-12-25T00:00:26.393Z,28.43
2022-12-25T00:03:32.887Z,21.60
2022-12-25T00:06:39.338Z,24.07
2022-12-25T00:09:47.064Z,22.33
2022-12-25T00:12:53.684Z,21.27
2022-12-25T00:16:00.290Z,21.47
2022-12-25T00:19:06.516Z,18.67
2022-12-25T00:22:12.919Z,16.80
2022-12-25T00:25:20.500Z,16.87
2022-12-25T00:28:27.421Z,17.97
2022-12-25T00:31:34.829Z,17.77
2022-12-25T00:34:41.000Z,18.13
2022-12-25T00:37:47.149Z,20.63
2022-12-25T00:40:55.364Z,16.70
2022-12-25T00:44:01.460Z,17.70
2022-12-25T00:47:07.911Z,17.30
2022-12-25T00:50:14.229Z,16.57
2022-12-25T00:53:20.663Z,18.40
2022-12-25T00:56:28.298Z,19.33
2022-12-25T00:59:35.194Z,16.80
2022-12-25T01:02:41.620Z,17.93
2022-12-25T01:05:56.936Z,17.80
2022-12-25T01:09:16.917Z,16.53
2022-12-25T01:12:24.386Z,15.43
2022-12-25T01:15:30.975Z,20.53
2022-12-25T01:18:38.111Z,17.17
2022-12-25T01:21:44.478Z,16.33
2022-12-25T01:24:51.239Z,16.17
2022-12-25T01:27:59.007Z,14.20
2022-12-25T01:31:06.791Z,13.37
2022-12-25T01:34:12.883Z,13.17
2022-12-25T01:37:19.358Z,15.67
2022-12-25T01:40:26.205Z,16.00
2022-12-25T01:43:34.914Z,16.73
2022-12-25T01:46:41.446Z,17.60
2022-12-25T01:49:51.059Z,17.23
2022-12-25T01:52:59.155Z,14.57
2022-12-25T01:56:09.275Z,18.73
2022-12-25T01:59:20.861Z,21.20
2022-12-25T02:02:27.417Z,22.00
2022-12-25T02:05:35.622Z,20.80
2022-12-25T02:08:42.242Z,17.33
2022-12-25T02:12:00.818Z,20.37
2022-12-25T02:15:12.477Z,22.27
2022-12-25T02:18:25.499Z,21.60
2022-12-25T02:21:57.207Z,20.47
2022-12-25T02:25:22.307Z,14.67
2022-12-25T02:28:36.207Z,16.67
2022-12-25T02:31:49.825Z,15.33
2022-12-25T02:35:03.473Z,13.47
2022-12-25T02:38:17.030Z,14.37
2022-12-25T02:41:22.768Z,15.33
2022-12-25T02:44:49.636Z,14.03
2022-12-25T02:48:13.314Z,15.50
2022-12-25T02:51:39.727Z,13.77
2022-12-25T02:55:07.922Z,15.43
2022-12-25T02:58:36.416Z,13.50
2022-12-25T03:02:02.616Z,10.10
2022-12-25T03:05:30.927Z,10.77
2022-12-25T03:08:41.905Z,9.90
2022-12-25T03:11:54.700Z,11.20
2022-12-25T03:15:18.414Z,11.80
2022-12-25T03:18:29.725Z,12.40
2022-12-25T03:21:53.253Z,13.40
2022-12-25T03:25:17.391Z,11.67
2022-12-25T03:28:23.686Z,14.03
2022-12-25T03:31:39.293Z,17.53
2022-12-25T03:35:12.019Z,11.67
2022-12-25T03:38:46.364Z,11.03
2022-12-25T03:42:16.467Z,9.30
2022-12-25T03:45:47.576Z,11.40
2022-12-25T03:49:19.493Z,8.17
2022-12-25T03:52:47.161Z,12.87
2022-12-25T03:56:12.505Z,12.67
2022-12-25T03:59:38.262Z,10.40
2022-12-25T04:03:02.088Z,7.60
2022-12-25T04:06:26.032Z,10.10
2022-12-25T04:09:50.913Z,9.87
2022-12-25T04:13:14.929Z,9.77
2022-12-25T04:16:38.557Z,8.87
2022-12-25T04:20:02.733Z,12.80
2022-12-25T04:23:26.486Z,10.07
2022-12-25T04:26:50.743Z,10.63
2022-12-25T04:30:13.979Z,10.17
2022-12-25T04:33:37.881Z,11.77
2022-12-25T04:36:45.041Z,11.70
2022-12-25T04:39:51.232Z,16.23
2022-12-25T04:42:59.115Z,20.53
2022-12-25T04:46:06.735Z,42.50
2022-12-25T04:49:13.134Z,28.67
2022-12-25T04:52:19.334Z,32.27
2022-12-25T04:55:25.657Z,24.90
2022-12-25T04:58:34.288Z,29.47
2022-12-25T05:01:40.761Z,28.53
2022-12-25T05:04:47.930Z,25.00
2022-12-25T05:07:54.112Z,19.23
2022-12-25T05:11:00.968Z,20.33
2022-12-25T05:14:08.333Z,22.87
2022-12-25T05:17:15.178Z,25.93
2022-12-25T05:20:21.552Z,25.40
2022-12-25T05:23:27.882Z,28.20
2022-12-25T05:26:34.007Z,27.90
2022-12-25T05:29:41.762Z,34.77
2022-12-25T05:32:48.943Z,37.63
2022-12-25T05:35:55.189Z,44.47
2022-12-25T05:39:01.714Z,29.57
2022-12-25T05:42:07.950Z,26.77
2022-12-25T05:45:15.860Z,33.97
2022-12-25T05:48:22.056Z,31.20
2022-12-25T05:51:28.233Z,31.50
2022-12-25T05:54:35.544Z,36.77
2022-12-25T05:57:41.676Z,70.13
2022-12-25T06:00:49.639Z,53.63
2022-12-25T06:03:56.021Z,35.03
2022-12-25T06:07:02.219Z,35.87
2022-12-25T06:10:09.779Z,20.90
2022-12-25T06:13:16.081Z,22.03
2022-12-25T06:16:23.691Z,20.87
2022-12-25T06:19:30.090Z,18.70
2022-12-25T06:22:36.312Z,17.50
2022-12-25T06:25:42.588Z,19.47
2022-12-25T06:28:49.209Z,29.70
2022-12-25T06:31:57.600Z,32.30
2022-12-25T06:35:04.372Z,39.00
2022-12-25T06:38:10.605Z,29.10
2022-12-25T06:41:18.899Z,23.20
2022-12-25T06:44:25.042Z,23.63
2022-12-25T06:47:32.386Z,27.00
2022-12-25T06:50:44.313Z,29.07
2022-12-25T06:53:52.128Z,40.70
2022-12-25T06:56:58.373Z,44.03
2022-12-25T07:00:05.054Z,58.20
2022-12-25T07:03:21.380Z,55.30
2022-12-25T07:06:28.506Z,46.30
2022-12-25T07:09:35.831Z,43.33
2022-12-25T07:12:41.924Z,49.77
2022-12-25T07:15:48.454Z,53.83
2022-12-25T07:18:56.259Z,47.67
2022-12-25T07:22:02.505Z,48.17
2022-12-25T07:25:09.591Z,55.33
2022-12-25T07:28:16.041Z,63.40
2022-12-25T07:31:22.671Z,71.27
2022-12-25T07:34:30.567Z,60.53
2022-12-25T07:37:36.718Z,76.37
2022-12-25T07:40:46.410Z,62.63
2022-12-25T07:43:53.057Z,76.97
2022-12-25T07:46:59.160Z,76.43
2022-12-25T07:50:08.896Z,76.37
2022-12-25T07:53:14.984Z,53.13
2022-12-25T07:56:21.898Z,51.87
2022-12-25T07:59:28.197Z,48.77
2022-12-25T08:02:34.556Z,68.20
2022-12-25T08:05:42.213Z,69.60
2022-12-25T08:08:48.900Z,51.80
2022-12-25T08:11:54.990Z,36.30
2022-12-25T08:15:01.268Z,22.27
2022-12-25T08:18:07.374Z,17.53
2022-12-25T08:21:16.041Z,13.43
2022-12-25T08:24:22.698Z,14.10
2022-12-25T08:27:29.322Z,22.93
2022-12-25T08:30:35.643Z,20.90
2022-12-25T08:33:41.649Z,19.00
2022-12-25T08:36:49.928Z,23.30
2022-12-25T08:39:56.408Z,22.73
2022-12-25T08:43:03.014Z,22.57
2022-12-25T08:46:09.753Z,25.20
2022-12-25T08:49:16.488Z,26.30
2022-12-25T08:52:24.035Z,23.27
2022-12-25T08:55:30.618Z,14.97
2022-12-25T08:58:37.252Z,10.00
2022-12-25T09:01:43.815Z,5.90
2022-12-25T09:04:50.544Z,4.40
2022-12-25T09:07:58.138Z,4.67
2022-12-25T09:11:04.474Z,6.83
2022-12-25T09:14:10.936Z,7.40
2022-12-25T09:17:16.747Z,7.87
2022-12-25T09:20:22.774Z,8.43
2022-12-25T09:23:33.645Z,5.13
2022-12-25T09:26:40.194Z,5.83
2022-12-25T09:29:46.207Z,4.50
2022-12-25T09:32:52.435Z,4.10
2022-12-25T09:36:00.451Z,3.23
2022-12-25T09:39:08.644Z,3.10
2022-12-25T09:42:18.479Z,4.73
2022-12-25T09:45:28.351Z,5.30
2022-12-25T09:48:36.951Z,4.63
2022-12-25T09:51:45.413Z,7.80
2022-12-25T09:54:59.182Z,8.93
2022-12-25T09:58:12.831Z,4.67
2022-12-25T10:01:27.393Z,5.90
2022-12-25T10:04:54.870Z,3.63
2022-12-25T10:08:08.905Z,8.90
2022-12-25T10:11:25.138Z,10.77
2022-12-25T10:14:37.805Z,7.13
2022-12-25T10:18:02.019Z,6.30
2022-12-25T10:21:13.334Z,5.10
2022-12-25T10:24:31.983Z,4.73
2022-12-25T10:27:42.842Z,4.63
2022-12-25T10:30:51.410Z,5.97
2022-12-25T10:33:59.536Z,6.30
2022-12-25T10:37:05.863Z,3.03
2022-12-25T10:40:31.214Z,3.63
2022-12-25T10:43:43.518Z,7.63
2022-12-25T10:46:51.279Z,5.03
2022-12-25T10:49:59.369Z,4.80
2022-12-25T10:53:09.531Z,5.67
2022-12-25T10:56:18.917Z,5.87
2022-12-25T10:59:27.845Z,7.20
2022-12-25T11:02:41.075Z,6.53
2022-12-25T11:05:51.529Z,9.53
2022-12-25T11:08:59.689Z,4.53
2022-12-25T11:12:06.902Z,8.20
2022-12-25T11:15:35.459Z,6.43
2022-12-25T11:18:49.979Z,5.63
2022-12-25T11:21:58.312Z,3.83
2022-12-25T11:25:13.511Z,3.70
2022-12-25T11:28:19.877Z,3.47
2022-12-25T11:31:36.635Z,4.03
2022-12-25T11:34:45.784Z,3.10
2022-12-25T11:37:53.532Z,3.40
2022-12-25T11:41:04.007Z,10.57
2022-12-25T11:44:26.664Z,4.20
2022-12-25T11:47:37.773Z,5.90
2022-12-25T11:50:48.067Z,3.93
2022-12-25T11:53:57.046Z,5.03
2022-12-25T11:57:07.654Z,3.23
2022-12-25T12:00:17.127Z,4.63
2022-12-25T12:03:28.628Z,5.83
2022-12-25T12:06:46.767Z,4.80
2022-12-25T12:09:59.672Z,6.10
2022-12-25T12:13:30.656Z,6.60
2022-12-25T12:16:37.380Z,7.10
2022-12-25T12:19:45.063Z,5.90
2022-12-25T12:22:51.950Z,3.83
2022-12-25T12:25:59.118Z,5.07
2022-12-25T12:29:08.438Z,7.07
2022-12-25T12:32:30.340Z,5.90
2022-12-25T12:35:41.263Z,5.23
2022-12-25T12:38:47.712Z,6.87
2022-12-25T12:41:54.906Z,4.40
2022-12-25T12:45:11.743Z,5.47
2022-12-25T12:48:26.348Z,5.70
2022-12-25T12:51:37.064Z,6.43
2022-12-25T12:54:57.196Z,6.83
2022-12-25T12:58:05.294Z,5.80
2022-12-25T13:01:21.890Z,3.93
2022-12-25T13:04:45.470Z,4.93
2022-12-25T13:08:04.135Z,8.27
2022-12-25T13:11:17.927Z,14.50
2022-12-25T13:14:25.838Z,6.13
2022-12-25T13:17:32.117Z,5.97
2022-12-25T13:20:46.197Z,5.87
2022-12-25T13:24:00.561Z,7.03
2022-12-25T13:27:23.123Z,4.50
2022-12-25T13:30:29.594Z,4.20
2022-12-25T13:33:36.386Z,6.63
2022-12-25T13:36:43.050Z,5.63
2022-12-25T13:39:53.324Z,6.13
2022-12-25T13:43:02.387Z,8.83
2022-12-25T13:46:09.049Z,5.93
2022-12-25T13:49:17.887Z,9.10
2022-12-25T13:52:29.746Z,7.80
2022-12-25T13:55:37.945Z,4.87
2022-12-25T13:58:45.242Z,6.20
2022-12-25T14:01:52.609Z,8.17
2022-12-25T14:04:58.937Z,7.87
2022-12-25T14:08:13.696Z,6.57
2022-12-25T14:11:23.988Z,8.40
2022-12-25T14:14:31.016Z,11.10
2022-12-25T14:17:37.334Z,11.00
2022-12-25T14:20:56.042Z,12.57
2022-12-25T14:24:02.596Z,11.43
2022-12-25T14:27:20.817Z,10.53
2022-12-25T14:30:30.263Z,6.30
2022-12-25T14:33:40.042Z,10.80
2022-12-25T14:36:46.790Z,201.17
2022-12-25T14:39:58.433Z,77.13
2022-12-25T14:43:22.296Z,62.50
2022-12-25T14:46:31.093Z,270.00
2022-12-25T14:49:38.156Z,81.23
2022-12-25T14:52:46.270Z,66.83
2022-12-25T14:55:55.118Z,40.10
2022-12-25T14:59:02.967Z,21.70
2022-12-25T15:02:20.375Z,14.67
2022-12-25T15:05:33.122Z,33.43
2022-12-25T15:08:41.301Z,36.57
2022-12-25T15:11:49.422Z,37.70
2022-12-25T15:14:57.296Z,37.00
2022-12-25T15:18:05.943Z,37.43
2022-12-25T15:21:17.367Z,37.90
2022-12-25T15:24:23.711Z,41.20
2022-12-25T15:27:29.958Z,39.57
2022-12-25T15:30:39.450Z,41.30
2022-12-25T15:33:45.970Z,30.60
2022-12-25T15:36:52.978Z,32.37
2022-12-25T15:39:59.585Z,18.47
2022-12-25T15:43:11.553Z,9.47
2022-12-25T15:46:30.366Z,9.73
2022-12-25T15:49:36.940Z,8.63
2022-12-25T15:52:43.219Z,11.77
2022-12-25T15:55:49.824Z,11.20
2022-12-25T15:58:56.368Z,12.97
2022-12-25T16:02:04.401Z,13.40
2022-12-25T16:05:11.190Z,19.67
2022-12-25T16:08:17.256Z,30.47
2022-12-25T16:11:23.399Z,41.03
2022-12-25T16:14:29.936Z,49.50
2022-12-25T16:17:37.890Z,43.57
2022-12-25T16:20:44.444Z,44.67
2022-12-25T16:23:50.811Z,50.60
2022-12-25T16:26:57.004Z,60.93
2022-12-25T16:30:04.434Z,51.93
2022-12-25T16:33:12.889Z,53.03
2022-12-25T16:36:23.549Z,43.60
2022-12-25T16:39:33.866Z,43.63
2022-12-25T16:42:40.509Z,42.27
2022-12-25T16:45:47.233Z,41.20
2022-12-25T16:48:56.461Z,46.17
2022-12-25T16:52:03.944Z,44.97
2022-12-25T16:55:11.066Z,60.80
2022-12-25T16:58:17.836Z,37.40
2022-12-25T17:01:24.515Z,42.87
2022-12-25T17:04:32.507Z,38.73
2022-12-25T17:07:39.315Z,44.23
2022-12-25T17:10:46.819Z,48.10
2022-12-25T17:13:53.045Z,48.77
2022-12-25T17:16:59.293Z,51.03
2022-12-25T17:20:08.536Z,48.17
2022-12-25T17:23:15.085Z,51.07
2022-12-25T17:26:21.407Z,38.80
2022-12-25T17:29:28.024Z,37.77
2022-12-25T17:32:35.674Z,33.33
2022-12-25T17:35:43.077Z,47.17
2022-12-25T17:38:50.271Z,46.10
2022-12-25T17:41:56.803Z,44.83
2022-12-25T17:45:02.847Z,43.63
2022-12-25T17:48:09.143Z,42.60
2022-12-25T17:51:18.392Z,46.67
2022-12-25T17:54:24.759Z,53.43
2022-12-25T17:57:30.935Z,48.23
2022-12-25T18:00:37.669Z,42.90
2022-12-25T18:03:44.931Z,36.87
2022-12-25T18:06:52.661Z,25.43
2022-12-25T18:09:59.175Z,24.83
2022-12-25T18:13:05.880Z,28.63
2022-12-25T18:16:13.654Z,38.27
2022-12-25T18:19:20.098Z,41.97
2022-12-25T18:22:28.142Z,55.20
2022-12-25T18:25:34.820Z,54.67
2022-12-25T18:28:42.822Z,67.10
2022-12-25T18:31:49.267Z,84.43
2022-12-25T18:34:55.917Z,80.43
2022-12-25T18:38:03.774Z,56.43
2022-12-25T18:41:11.609Z,66.27
2022-12-25T18:44:17.965Z,59.97
2022-12-25T18:47:24.435Z,66.57
2022-12-25T18:50:31.040Z,63.63
2022-12-25T18:53:38.732Z,72.97
2022-12-25T18:56:47.401Z,65.13
2022-12-25T18:59:56.713Z,64.87
2022-12-25T19:03:03.209Z,67.53
2022-12-25T19:06:10.029Z,60.23
2022-12-25T19:09:17.724Z,53.43
2022-12-25T19:12:25.391Z,53.77
2022-12-25T19:15:31.489Z,40.33
2022-12-25T19:18:37.973Z,38.67
2022-12-25T19:21:44.354Z,39.70
2022-12-25T19:24:52.213Z,34.07
2022-12-25T19:27:58.567Z,28.50
2022-12-25T19:31:07.633Z,26.20
2022-12-25T19:34:14.314Z,39.67
2022-12-25T19:37:20.467Z,33.40
2022-12-25T19:40:28.087Z,57.53
2022-12-25T19:43:36.697Z,53.47
2022-12-25T19:46:43.432Z,47.50
2022-12-25T19:49:53.209Z,51.97
2022-12-25T19:53:00.014Z,47.43
2022-12-25T19:56:07.880Z,56.17
2022-12-25T19:59:14.674Z,56.33
2022-12-25T20:02:21.152Z,60.10
2022-12-25T20:05:27.417Z,55.20
2022-12-25T20:08:33.818Z,35.57
2022-12-25T20:11:42.064Z,38.30
2022-12-25T20:14:49.494Z,28.63
2022-12-25T20:17:55.963Z,28.30
2022-12-25T20:21:02.909Z,36.23
2022-12-25T20:24:11.272Z,45.70
2022-12-25T20:27:19.055Z,39.80
2022-12-25T20:30:25.445Z,43.70
2022-12-25T20:33:31.529Z,34.47
2022-12-25T20:36:38.371Z,25.80
2022-12-25T20:39:45.259Z,31.37
2022-12-25T20:42:53.029Z,42.03
2022-12-25T20:45:59.862Z,47.17
2022-12-25T20:49:06.815Z,53.33
2022-12-25T20:52:13.421Z,55.30
2022-12-25T20:55:20.270Z,40.53
2022-12-25T20:58:28.228Z,28.27
2022-12-25T21:01:34.810Z,29.37
2022-12-25T21:04:41.337Z,27.63
2022-12-25T21:07:47.959Z,15.33
2022-12-25T21:11:00.799Z,17.83
2022-12-25T21:14:10.148Z,19.03
2022-12-25T21:17:16.309Z,16.90
2022-12-25T21:20:22.991Z,19.80
2022-12-25T21:23:30.561Z,17.67
2022-12-25T21:26:37.069Z,20.70
2022-12-25T21:29:44.825Z,21.47
2022-12-25T21:33:08.616Z,19.13
2022-12-25T21:36:17.571Z,13.53
2022-12-25T21:39:24.047Z,19.17
2022-12-25T21:42:32.134Z,19.20
2022-12-25T21:45:39.573Z,20.53
2022-12-25T21:48:46.410Z,48.13
2022-12-25T21:52:09.684Z,40.70
2022-12-25T21:55:16.296Z,17.93
2022-12-25T21:58:22.625Z,16.20
2022-12-25T22:01:31.667Z,17.13
2022-12-25T22:04:38.034Z,13.70
2022-12-25T22:07:43.413Z,11.17
2022-12-25T22:10:50.003Z,7.80
2022-12-25T22:14:13.858Z,5.83
2022-12-25T22:17:41.596Z,6.83
2022-12-25T22:20:47.622Z,7.47
2022-12-25T22:23:53.695Z,7.70
2022-12-25T22:27:00.076Z,12.10
2022-12-25T22:30:08.158Z,15.90
2022-12-25T22:33:16.080Z,32.77
2022-12-25T22:36:23.650Z,37.70
2022-12-25T22:39:31.622Z,18.03
2022-12-25T22:42:37.862Z,11.87
2022-12-25T22:45:44.276Z,10.80
2022-12-25T22:48:52.132Z,12.23
2022-12-25T22:51:58.973Z,14.00
2022-12-25T22:55:06.019Z,19.30
2022-12-25T22:58:12.299Z,47.03
2022-12-25T23:01:18.493Z,30.07
2022-12-25T23:04:26.319Z,22.97
2022-12-25T23:07:33.000Z,20.40
2022-12-25T23:10:39.422Z,15.73
2022-12-25T23:14:03.535Z,18.10
2022-12-25T23:17:25.952Z,11.60
2022-12-25T23:20:51.843Z,8.53
2022-12-25T23:24:15.687Z,6.53
2022-12-25T23:27:22.115Z,7.67
2022-12-25T23:30:28.580Z,11.97
2022-12-25T23:33:34.689Z,9.90
2022-12-25T23:36:42.732Z,14.10
2022-12-25T23:39:50.285Z,13.47
2022-12-25T23:42:56.553Z,17.97
2022-12-25T23:46:03.107Z,17.33
2022-12-25T23:49:10.394Z,19.67
2022-12-25T23:52:18.923Z,18.23
2022-12-25T23:55:25.807Z,17.43
2022-12-25T23:58:32.250Z,15.87
